Time;durP1;ratioP1;P1;durP2;ratioP2;P2;SDS_P1;SDS_P2;PMS_P1;PMS_P2;Temp;Humidity;BMP_temperature;BMP_pressure;BME280_temperature;BME280_humidity;BME280_pressure;Samples;Min_cycle;Max_cycle;Signal;HPM_P1;HPM_P2
2022/02/07 00:00:56;;;;;;;8.88;6.63;;;;;;;10.75;58.64;99130.97;5092946;28;20034;-49
2022/02/07 00:03:37;;;;;;;10.13;6.95;;;;;;;10.83;58.85;99130.81;5092986;28;20082;-49
2022/02/07 00:06:03;;;;;;;49.17;39.80;;;;;;;11.06;58.01;99127.94;5092895;28;20524;-49
2022/02/07 00:08:29;;;;;;;11.27;7.28;;;;;;;11.12;56.75;99113.22;5091428;28;20077;-49
2022/02/07 00:10:55;;;;;;;8.63;4.20;;;;;;;10.94;57.59;99121.59;5091446;28;20012;-49
2022/02/07 00:13:20;;;;;;;14.70;5.70;;;;;;;10.90;59.22;99113.28;5092771;28;20402;-49
2022/02/07 00:15:46;;;;;;;10.68;5.97;;;;;;;11.06;59.33;99106.91;5092657;28;20106;-48
2022/02/07 00:18:13;;;;;;;7.15;3.50;;;;;;;11.24;58.70;99101.16;5091371;28;20028;-48
2022/02/07 00:20:38;;;;;;;3.25;1.95;;;;;;;11.43;58.22;99101.44;5092587;28;20065;-49
2022/02/07 00:23:04;;;;;;;16.73;6.75;;;;;;;11.47;59.61;99100.88;5091302;28;20027;-49
2022/02/07 00:25:30;;;;;;;11.88;6.07;;;;;;;11.47;60.64;99105.31;5092483;28;20020;-50
2022/02/07 00:27:55;;;;;;;5.40;2.72;;;;;;;11.15;60.55;99095.25;5091115;28;20034;-49
2022/02/07 00:30:23;;;;;;;8.07;4.75;;;;;;;10.86;60.92;99104.16;5092468;28;20026;-49
2022/02/07 00:32:49;;;;;;;7.60;4.82;;;;;;;10.73;62.73;99101.47;5091900;28;20039;-49
2022/02/07 00:35:19;;;;;;;7.32;5.13;;;;;;;10.56;62.85;99093.88;5092415;28;20028;-50
2022/02/07 00:37:47;;;;;;;9.27;6.72;;;;;;;10.45;63.00;99099.63;5092307;28;20035;-49
2022/02/07 00:43:14;;;;;;;6.20;3.88;;;;;;;10.61;62.69;99095.13;5092232;28;20473;-49
2022/02/07 00:48:00;;;;;;;2.25;1.60;;;;;;;10.82;60.38;99091.63;5092197;28;20081;-49
2022/02/07 00:50:31;;;;;;;4.47;1.73;;;;;;;11.10;58.47;99091.59;5092179;28;20020;-49
2022/02/07 00:52:57;;;;;;;44.65;23.40;;;;;;;11.23;57.70;99094.31;5092109;28;20020;-49
2022/02/07 00:55:22;;;;;;;1809.65;999.90;;;;;;;11.32;61.22;99092.31;5092111;28;20054;-50
2022/02/07 00:57:48;;;;;;;282.70;217.80;;;;;;;11.37;62.41;99089.94;5090692;28;20107;-49
2022/02/07 01:00:15;;;;;;;42.35;33.42;;;;;;;11.07;62.17;99092.00;5092002;28;20020;-49
2022/02/07 01:02:41;;;;;;;43.15;30.25;;;;;;;10.65;64.70;99096.34;5091941;28;20020;-49
2022/02/07 01:05:07;;;;;;;29.27;18.50;;;;;;;10.38;65.36;99101.38;5091919;28;20035;-49
2022/02/07 01:07:33;;;;;;;37.35;28.33;;;;;;;10.06;65.46;99113.13;5091820;28;20020;-49
2022/02/07 01:09:59;;;;;;;23.98;14.75;;;;;;;9.82;67.11;99119.53;5091927;28;20024;-50
2022/02/07 01:15:29;;;;;;;18.48;11.95;;;;;;;9.56;69.53;99123.50;5091939;28;20036;-49
2022/02/07 01:47:49;;;;;;;6.20;4.50;;;;;;;9.65;70.60;99106.66;5053107;28;20052;-48
2022/02/07 01:50:45;;;;;;;4.07;2.15;;;;;;;9.83;70.24;99103.63;5053080;28;20033;-48
2022/02/07 01:55:40;;;;;;;7.95;5.22;;;;;;;9.96;70.58;99087.22;5053040;28;20069;-48
2022/02/07 01:58:07;;;;;;;6.40;3.75;;;;;;;10.09;70.95;99087.34;5088957;28;20520;-48
2022/02/07 02:00:34;;;;;;;16.05;5.07;;;;;;;10.26;71.25;99090.56;5095351;28;20031;-48
2022/02/07 02:03:00;;;;;;;8.50;2.42;;;;;;;10.38;70.21;99088.25;5095293;28;20111;-48
2022/02/07 02:05:31;;;;;;;4.15;1.50;;;;;;;10.36;70.71;99077.13;5095214;28;20026;-48
2022/02/07 02:07:56;;;;;;;6.70;2.05;;;;;;;10.28;70.81;99069.38;5095198;28;20077;-47
2022/02/07 02:10:22;;;;;;;3.80;2.08;;;;;;;10.20;71.49;99062.44;5093813;28;20020;-48
2022/02/07 02:12:59;;;;;;;7.80;1.90;;;;;;;10.18;71.73;99067.88;5095050;28;20059;-48
2022/02/07 02:15:39;;;;;;;4.63;1.63;;;;;;;10.24;71.80;99068.13;5095063;28;20490;-48
2022/02/07 02:45:32;;;;;;;5.28;2.20;;;;;;;11.44;68.12;99061.84;5085691;28;20076;-47
2022/02/07 02:48:03;;;;;;;2.80;2.03;;;;;;;11.66;67.98;99066.97;5094421;28;20021;-48
2022/02/07 02:50:36;;;;;;;4.93;3.40;;;;;;;11.71;69.67;99073.25;5094441;28;20504;-48
2022/02/07 02:53:03;;;;;;;3.13;2.03;;;;;;;11.81;70.50;99078.13;5094373;28;20028;-49
2022/02/07 02:55:30;;;;;;;7.82;2.63;;;;;;;11.95;71.26;99079.00;5092873;28;20432;-48
2022/02/07 02:57:57;;;;;;;3.70;3.15;;;;;;;11.85;69.29;99076.75;5094290;28;20024;-48
2022/02/07 03:00:24;;;;;;;3.83;2.60;;;;;;;11.46;70.61;99078.22;5094167;28;20093;-49
2022/02/07 03:02:50;;;;;;;5.05;3.85;;;;;;;11.34;71.25;99082.41;5092846;28;20112;-49
2022/02/07 03:05:16;;;;;;;4.57;2.30;;;;;;;11.21;72.52;99075.28;5094097;28;20464;-48
2022/02/07 03:07:43;;;;;;;6.45;3.00;;;;;;;11.35;72.56;99071.72;5093965;28;20018;-48
2022/02/07 03:10:09;;;;;;;5.03;1.90;;;;;;;11.54;71.86;99074.63;5094012;28;20054;-48
2022/02/07 03:12:57;;;;;;;3.22;1.20;;;;;;;11.71;71.29;99070.63;5093976;28;20459;-48
2022/02/07 03:18:07;;;;;;;2.75;1.20;;;;;;;12.02;71.24;99061.41;5093927;28;20105;-48
2022/02/07 03:20:32;;;;;;;4.03;1.58;;;;;;;12.18;71.64;99061.03;5093815;28;20110;-48
2022/02/07 03:22:58;;;;;;;5.90;1.73;;;;;;;12.24;71.29;99053.34;5093783;28;20136;-49
2022/02/07 03:25:23;;;;;;;4.20;2.20;;;;;;;12.13;71.47;99058.22;5093655;28;20491;-49
2022/02/07 03:27:49;;;;;;;6.63;2.47;;;;;;;12.05;72.50;99055.75;5092330;28;20555;-49
2022/02/07 03:30:15;;;;;;;8.43;4.90;;;;;;;11.89;73.17;99050.88;5093560;28;20378;-50
2022/02/07 03:32:40;;;;;;;18.55;16.77;;;;;;;11.92;74.27;99050.47;5093282;28;20024;-49
2022/02/07 03:35:07;;;;;;;8.05;3.13;;;;;;;11.87;74.72;99055.50;5093518;28;20027;-48
2022/02/07 03:37:33;;;;;;;2.75;1.50;;;;;;;11.80;74.66;99056.28;5093483;28;20028;-48
2022/02/07 03:39:58;;;;;;;16.40;7.03;;;;;;;11.82;75.14;99063.19;5093404;28;20527;-49
2022/02/07 03:42:24;;;;;;;8.93;1.73;;;;;;;11.83;75.23;99070.03;5093382;28;20477;-50
2022/02/07 03:44:50;;;;;;;1.80;1.25;;;;;;;11.76;75.51;99078.72;5093297;28;20481;-49
2022/02/07 03:47:15;;;;;;;31.67;25.05;;;;;;;11.65;76.14;99089.00;5093249;28;20445;-49
2022/02/07 03:49:41;;;;;;;5.75;2.40;;;;;;;11.65;76.31;99086.38;5093463;28;20501;-49
2022/02/07 03:52:08;;;;;;;3.05;1.75;;;;;;;11.69;76.43;99077.09;5091867;28;20446;-49
2022/02/07 03:54:35;;;;;;;4.57;2.38;;;;;;;11.65;76.69;99083.75;5091821;28;20082;-49
2022/02/07 03:57:01;;;;;;;6.75;2.70;;;;;;;11.56;76.98;99083.91;5093124;28;20030;-51
2022/02/07 03:59:27;;;;;;;8.05;5.93;;;;;;;11.46;77.43;99085.31;5093051;28;20099;-49
2022/02/07 04:01:52;;;;;;;7.03;2.55;;;;;;;11.35;78.97;99084.84;5092977;28;20036;-50
2022/02/07 04:04:18;;;;;;;5.20;2.80;;;;;;;11.25;78.77;99092.28;5092994;28;20016;-50
2022/02/07 04:06:44;;;;;;;5.80;1.92;;;;;;;11.27;79.54;99092.91;5091361;28;20398;-50
2022/02/07 04:09:13;;;;;;;3.55;1.67;;;;;;;11.26;79.87;99088.63;5092456;28;20406;-50
2022/02/07 04:11:48;;;;;;;7.35;3.22;;;;;;;11.24;80.10;99090.66;5092826;28;20020;-50
2022/02/07 04:14:20;;;;;;;15.88;13.02;;;;;;;11.26;79.97;99098.34;5091556;28;20435;-50
2022/02/07 04:16:46;;;;;;;4.47;4.07;;;;;;;11.28;80.25;99096.34;5092742;28;20081;-50
2022/02/07 04:19:20;;;;;;;4.35;1.42;;;;;;;11.31;80.34;99096.75;5092701;28;20028;-50
2022/02/07 04:21:49;;;;;;;18.15;14.60;;;;;;;11.35;80.32;99082.22;5091324;28;20078;-50
2022/02/07 04:24:16;;;;;;;6.75;2.20;;;;;;;11.38;80.40;99076.56;5091258;28;20020;-48
2022/02/07 04:26:41;;;;;;;4.32;1.40;;;;;;;11.38;80.33;99089.72;5092583;28;20024;-49
2022/02/07 04:29:07;;;;;;;7.45;4.85;;;;;;;11.39;80.42;99075.56;5092425;28;20069;-49
2022/02/07 04:31:33;;;;;;;4.70;1.30;;;;;;;11.47;80.10;99089.53;5092508;28;20382;-48
2022/02/07 04:33:58;;;;;;;6.95;3.95;;;;;;;11.49;79.76;99082.25;5092187;28;20048;-49
2022/02/07 04:36:24;;;;;;;5.35;1.67;;;;;;;11.58;79.84;99095.03;5092368;28;20031;-49
2022/02/07 04:38:50;;;;;;;2.25;1.05;;;;;;;11.63;79.86;99094.47;5091087;28;20136;-49
2022/02/07 04:41:16;;;;;;;2.30;0.75;;;;;;;11.64;79.85;99103.16;5092328;28;20137;-49
2022/02/07 04:43:51;;;;;;;6.28;0.95;;;;;;;11.65;80.13;99097.72;5092291;28;20068;-50
2022/02/07 04:54:32;;;;;;;24.45;8.13;;;;;;;11.26;81.16;99114.91;5092396;28;20233;-49
2022/02/07 04:59:54;;;;;;;17.65;5.93;;;;;;;11.24;81.93;99137.94;5092148;28;20051;-50
2022/02/07 05:04:55;;;;;;;18.70;2.20;;;;;;;11.53;80.22;99225.44;5092009;28;20148;-50
2022/02/07 05:15:33;;;;;;;4.05;0.85;;;;;;;11.19;82.06;99216.53;5091911;28;20403;-49
2022/02/07 05:17:59;;;;;;;3.35;1.27;;;;;;;11.23;81.92;99230.91;5090509;28;20520;-49
2022/02/07 05:20:25;;;;;;;12.98;6.63;;;;;;;11.36;82.28;99225.75;5093058;28;20060;-49
2022/02/07 05:22:51;;;;;;;5.55;1.63;;;;;;;11.54;82.31;99227.06;5094790;28;20016;-49
2022/02/07 05:25:17;;;;;;;7.13;1.20;;;;;;;11.68;82.04;99230.59;5095967;28;20020;-49
2022/02/07 05:27:43;;;;;;;5.03;1.30;;;;;;;11.76;81.83;99236.50;5094701;28;20077;-50
2022/02/07 05:30:09;;;;;;;6.43;1.98;;;;;;;11.88;81.51;99235.97;5094578;28;20023;-50
2022/02/07 05:32:34;;;;;;;3.00;1.27;;;;;;;11.90;81.54;99234.78;5094364;28;20451;-50
2022/02/07 05:35:00;;;;;;;2.08;1.08;;;;;;;11.92;81.07;99245.13;5095783;28;20032;-50
2022/02/07 05:37:26;;;;;;;7.10;1.77;;;;;;;11.66;79.73;99264.16;5095762;28;20435;-50
2022/02/07 05:39:57;;;;;;;6.70;1.70;;;;;;;11.34;79.73;99274.25;5095739;28;20378;-50
2022/02/07 05:42:23;;;;;;;8.80;1.23;;;;;;;11.18;79.23;99286.63;5095803;28;20024;-49
2022/02/07 05:44:48;;;;;;;37.53;3.58;;;;;;;10.70;76.05;99278.50;5095642;28;20020;-48
2022/02/07 05:47:14;;;;;;;20.17;12.73;;;;;;;9.91;73.81;99330.81;5095828;28;20024;-48
2022/02/07 05:49:40;;;;;;;9.13;2.60;;;;;;;9.10;74.06;99348.88;5094151;28;20024;-48
2022/02/07 05:52:06;;;;;;;9.77;3.08;;;;;;;8.73;77.14;99360.84;5094178;28;20371;-48
2022/02/07 05:54:32;;;;;;;4.90;0.90;;;;;;;8.46;76.68;99362.94;5095768;28;20027;-47
2022/02/07 05:56:58;;;;;;;5.20;0.75;;;;;;;8.26;77.72;99362.47;5094127;28;20434;-48
2022/02/07 05:59:24;;;;;;;28.33;14.48;;;;;;;8.17;77.67;99397.50;5095374;28;20039;-48
2022/02/07 06:01:50;;;;;;;23.45;8.57;;;;;;;8.03;78.35;99392.91;5095330;28;20520;-48
2022/02/07 06:04:15;;;;;;;100.88;74.88;;;;;;;8.03;79.08;99417.28;5093943;28;20020;-48
2022/02/07 06:06:41;;;;;;;176.02;152.20;;;;;;;8.09;79.47;99419.25;5095204;28;20486;-51
2022/02/07 06:09:07;;;;;;;29.55;16.10;;;;;;;8.11;80.01;99427.72;5094986;28;20631;-49
2022/02/07 06:11:34;;;;;;;16.15;4.60;;;;;;;8.20;80.38;99421.50;5095131;28;20099;-50
2022/02/07 06:13:59;;;;;;;71.10;54.33;;;;;;;8.20;80.78;99437.16;5095105;28;20107;-49
2022/02/07 06:16:27;;;;;;;19.45;11.65;;;;;;;8.28;81.28;99438.16;5095000;28;20123;-49
2022/02/07 06:18:53;;;;;;;7.47;1.80;;;;;;;8.36;81.57;99443.38;5093670;28;20017;-49
2022/02/07 06:21:19;;;;;;;8.95;2.10;;;;;;;8.42;81.02;99450.56;5095005;28;20374;-48
2022/02/07 06:23:45;;;;;;;16.73;3.97;;;;;;;8.58;82.10;99455.75;5093646;28;20028;-48
2022/02/07 06:26:11;;;;;;;5.03;1.80;;;;;;;8.86;82.23;99467.63;5094845;28;20027;-49
2022/02/07 06:28:36;;;;;;;10.48;1.63;;;;;;;8.91;80.95;99466.09;5094766;28;20501;-48
2022/02/07 06:31:02;;;;;;;7.63;1.13;;;;;;;8.82;80.62;99472.38;5094329;28;20020;-48
2022/02/07 06:33:28;;;;;;;7.65;1.50;;;;;;;8.76;80.71;99478.28;5093145;28;20048;-48
2022/02/07 06:35:54;;;;;;;8.75;2.60;;;;;;;8.91;80.65;99481.81;5094682;28;20024;-48
2022/02/07 06:38:19;;;;;;;263.48;229.60;;;;;;;8.82;79.40;99489.88;5093311;28;20032;-49
2022/02/07 06:40:45;;;;;;;150.32;115.25;;;;;;;8.72;79.11;99490.06;5094579;28;20023;-48
2022/02/07 06:43:11;;;;;;;330.83;278.80;;;;;;;8.60;79.30;99484.38;5094530;28;20031;-48
2022/02/07 06:45:37;;;;;;;52.20;40.35;;;;;;;8.64;79.29;99479.63;5094468;28;20059;-48
2022/02/07 06:48:03;;;;;;;20.45;14.52;;;;;;;8.50;78.91;99489.78;5094458;28;20103;-49
2022/02/07 06:50:29;;;;;;;7.25;3.38;;;;;;;8.40;79.16;99482.09;5094497;28;20055;-48
2022/02/07 06:52:55;;;;;;;6.25;2.03;;;;;;;8.31;79.04;99492.72;5094384;28;20059;-48
2022/02/07 06:55:21;;;;;;;6.75;1.77;;;;;;;8.20;78.78;99491.28;5094314;28;20024;-48
2022/02/07 06:57:46;;;;;;;13.52;3.28;;;;;;;8.02;78.84;99495.88;5093000;28;20032;-48
2022/02/07 07:00:13;;;;;;;6.43;2.67;;;;;;;7.89;78.32;99504.19;5094187;28;20028;-47
2022/02/07 07:02:39;;;;;;;8.48;1.80;;;;;;;7.85;78.88;99513.31;5094189;28;20020;-49
2022/02/07 07:05:10;;;;;;;5.65;1.40;;;;;;;7.80;78.69;99512.00;5094129;28;20073;-49
2022/02/07 07:07:36;;;;;;;6.63;1.35;;;;;;;7.82;78.81;99517.06;5094161;28;20038;-48
2022/02/07 07:10:04;;;;;;;7.78;2.53;;;;;;;7.96;79.39;99518.22;5093965;28;20024;-48
2022/02/07 07:12:29;;;;;;;8.77;1.60;;;;;;;8.10;79.07;99529.84;5093982;28;20047;-48
2022/02/07 07:15:28;;;;;;;6.30;1.88;;;;;;;8.22;78.89;99523.31;5093959;28;20367;-48
2022/02/07 07:17:42;;;;;;;7.78;2.20;;;;;;;8.30;78.23;99531.13;5093551;28;20058;-48
2022/02/07 07:20:10;;;;;;;8.70;3.33;;;;;;;8.30;77.27;99541.59;5093850;28;20032;-49
2022/02/07 07:22:36;;;;;;;9.68;2.20;;;;;;;8.63;75.06;99554.66;5093795;28;20028;-48
2022/02/07 07:25:03;;;;;;;5.10;1.70;;;;;;;8.69;74.42;99553.19;5093707;28;20020;-48
2022/02/07 07:27:34;;;;;;;13.20;5.82;;;;;;;8.65;74.63;99563.16;5093693;28;20016;-47
2022/02/07 07:30:00;;;;;;;8.13;2.78;;;;;;;8.71;74.65;99569.53;5092296;28;20198;-48
2022/02/07 07:32:29;;;;;;;13.00;2.17;;;;;;;9.10;74.35;99566.19;5093607;28;20024;-48
2022/02/07 07:34:56;;;;;;;5.35;1.10;;;;;;;10.00;72.20;99566.53;5093312;28;20040;-48
2022/02/07 07:37:22;;;;;;;5.57;1.42;;;;;;;10.96;69.13;99576.56;5093452;28;20099;-47
2022/02/07 07:39:47;;;;;;;6.95;0.98;;;;;;;11.90;67.32;99568.81;5093396;28;20048;-48
2022/02/07 07:42:14;;;;;;;8.63;2.03;;;;;;;12.81;65.19;99578.69;5091235;28;20055;-47
2022/02/07 07:44:40;;;;;;;8.68;1.33;;;;;;;12.96;62.08;99574.13;5092063;28;20032;-48
2022/02/07 07:47:13;;;;;;;7.35;2.33;;;;;;;12.62;62.02;99577.56;5093269;28;20020;-48
2022/02/07 07:49:57;;;;;;;14.32;2.03;;;;;;;12.39;61.03;99580.41;5093275;28;20063;-47
2022/02/07 07:52:41;;;;;;;11.95;1.30;;;;;;;12.57;58.99;99591.28;5093227;28;20081;-47
2022/02/07 07:55:25;;;;;;;18.05;1.77;;;;;;;12.54;58.58;99589.03;5093194;28;20020;-47
2022/02/07 08:03:21;;;;;;;5.70;1.90;;;;;;;11.57;60.85;99621.84;5093061;28;20114;-46
2022/02/07 08:06:05;;;;;;;10.45;1.50;;;;;;;11.47;59.85;99628.34;5092947;28;20020;-46
2022/02/07 08:08:38;;;;;;;6.70;1.80;;;;;;;11.51;60.10;99645.41;5092835;28;20517;-46
2022/02/07 08:11:08;;;;;;;9.85;1.27;;;;;;;11.59;61.37;99661.09;5092857;28;20024;-46
2022/02/07 08:13:34;;;;;;;9.18;2.00;;;;;;;11.62;61.23;99673.88;5092859;28;20477;-47
2022/02/07 08:16:00;;;;;;;6.43;1.85;;;;;;;11.92;61.20;99673.88;5092756;28;20030;-47
2022/02/07 08:18:26;;;;;;;8.20;2.70;;;;;;;12.70;60.60;99674.88;5092957;28;20031;-47
2022/02/07 08:20:52;;;;;;;9.38;1.80;;;;;;;13.09;58.92;99676.16;5092746;28;20046;-47
2022/02/07 08:23:18;;;;;;;10.82;3.00;;;;;;;13.29;59.03;99684.25;5092610;28;20020;-47
2022/02/07 08:25:43;;;;;;;8.90;1.33;;;;;;;13.31;58.17;99689.31;5091219;28;20028;-47
2022/02/07 08:28:09;;;;;;;11.50;1.45;;;;;;;13.53;57.44;99690.88;5091191;28;20080;-48
2022/02/07 08:30:35;;;;;;;7.43;1.50;;;;;;;13.81;56.31;99699.75;5092526;28;20402;-47
2022/02/07 08:33:03;;;;;;;8.90;1.42;;;;;;;14.36;55.89;99705.81;5092195;28;20111;-47
2022/02/07 08:35:30;;;;;;;5.53;1.35;;;;;;;14.71;52.58;99697.78;5092350;28;20058;-48
2022/02/07 08:37:59;;;;;;;9.45;2.15;;;;;;;15.08;52.27;99698.19;5092415;28;20036;-48
2022/02/07 08:40:26;;;;;;;6.47;1.63;;;;;;;15.10;51.30;99696.97;5092357;28;20044;-48
2022/02/07 08:42:54;;;;;;;12.52;1.67;;;;;;;14.44;51.00;99702.19;5092308;28;20508;-48
2022/02/07 08:45:20;;;;;;;12.73;2.17;;;;;;;13.60;52.27;99706.72;5092256;28;20053;-48
2022/02/07 08:47:46;;;;;;;10.63;1.65;;;;;;;12.98;54.35;99719.69;5090911;28;20027;-48
2022/02/07 08:50:13;;;;;;;15.30;1.58;;;;;;;12.57;54.88;99722.94;5092086;28;20065;-49
2022/02/07 08:52:43;;;;;;;10.85;1.50;;;;;;;12.36;55.49;99722.94;5090829;28;20026;-48
2022/02/07 08:55:18;;;;;;;18.50;2.22;;;;;;;12.30;56.20;99734.22;5092334;28;20024;-48
2022/02/07 08:57:46;;;;;;;9.27;2.40;;;;;;;12.58;55.38;99735.13;5092167;28;20111;-49
2022/02/07 09:00:17;;;;;;;6.80;1.35;;;;;;;12.87;54.86;99738.63;5092043;28;20670;-48
2022/02/07 09:10:35;;;;;;;11.10;1.30;;;;;;;15.12;49.72;99736.41;5091970;28;20023;-49
2022/02/07 09:13:01;;;;;;;11.32;1.80;;;;;;;16.02;47.61;99735.84;5091859;28;20036;-49
2022/02/07 09:15:43;;;;;;;6.82;1.23;;;;;;;17.01;46.01;99737.13;5090579;28;20020;-48
2022/02/07 09:18:11;;;;;;;12.48;2.33;;;;;;;17.74;43.51;99732.97;5090586;28;20410;-49
2022/02/07 09:20:41;;;;;;;4.18;1.33;;;;;;;18.33;42.04;99736.78;5091810;28;20020;-49
2022/02/07 09:23:07;;;;;;;10.13;1.88;;;;;;;18.48;41.13;99735.56;5091842;28;20115;-49
2022/02/07 09:25:33;;;;;;;8.25;1.52;;;;;;;18.56;40.34;99736.03;5091832;28;20155;-49
2022/02/07 09:27:59;;;;;;;8.43;2.20;;;;;;;19.01;39.96;99739.28;5091697;28;20028;-50
2022/02/07 09:30:27;;;;;;;13.75;1.70;;;;;;;19.21;37.50;99742.41;5091623;28;20032;-49
2022/02/07 09:32:53;;;;;;;6.97;1.70;;;;;;;19.25;36.71;99746.25;5091471;28;21271;-49
2022/02/07 09:35:19;;;;;;;16.77;1.67;;;;;;;19.41;37.02;99747.41;5090497;28;20044;-50
2022/02/07 09:37:44;;;;;;;11.95;1.90;;;;;;;18.99;36.57;99750.16;5091641;28;20402;-49
2022/02/07 09:40:11;;;;;;;11.98;1.83;;;;;;;19.28;36.96;99763.63;5091624;28;20020;-49
2022/02/07 09:42:43;;;;;;;9.82;1.60;;;;;;;20.01;36.61;99753.50;5090322;28;20035;-49
2022/02/07 09:45:28;;;;;;;10.10;2.60;;;;;;;20.58;34.67;99752.69;5091593;28;20020;-50
2022/02/07 09:47:54;;;;;;;;;;;;;;;20.73;36.01;99750.34;5092022;28;20027;-50
2022/02/07 09:50:20;;;;;;;6.80;1.45;;;;;;;20.74;32.70;99766.09;5091482;28;19916;-50
2022/02/07 09:52:46;;;;;;;11.10;2.15;;;;;;;20.90;32.07;99767.16;5091735;28;20028;-49
2022/02/07 09:55:12;;;;;;;9.38;1.70;;;;;;;21.26;32.18;99767.72;5091753;28;20016;-49
2022/02/07 09:57:38;;;;;;;7.13;1.02;;;;;;;21.69;30.79;99768.91;5091428;28;20038;-50
2022/02/07 10:00:08;;;;;;;7.13;1.30;;;;;;;21.88;29.57;99760.59;5091420;28;20032;-50
2022/02/07 10:02:52;;;;;;;8.75;1.55;;;;;;;21.90;29.54;99778.00;5091456;28;20393;-50
2022/02/07 10:05:23;;;;;;;6.30;1.38;;;;;;;22.19;29.50;99785.00;5092029;28;20054;-50
2022/02/07 10:18:23;;;;;;;9.35;1.67;;;;;;;21.66;29.36;99779.28;5095116;28;20035;-49
2022/02/07 10:43:19;;;;;;;7.35;1.73;;;;;;;19.10;31.90;99804.44;5094568;28;20460;-49
2022/02/07 10:46:09;;;;;;;11.02;2.60;;;;;;;18.24;34.20;99807.19;5094493;28;20486;-48
2022/02/07 10:49:03;;;;;;;6.75;1.77;;;;;;;19.19;33.12;99808.38;5094468;28;20075;-49
2022/02/07 10:51:31;;;;;;;11.25;2.95;;;;;;;19.91;31.51;99810.84;5091217;28;20066;-50
2022/02/07 10:54:02;;;;;;;8.13;1.83;;;;;;;20.18;30.76;99815.66;5094383;28;20016;-48
2022/02/07 10:56:36;;;;;;;11.38;2.28;;;;;;;20.33;30.26;99820.50;5093020;28;20512;-49
2022/02/07 10:59:06;;;;;;;10.02;1.65;;;;;;;20.29;30.50;99808.69;5094373;28;20058;-49
2022/02/07 11:04:11;;;;;;;6.40;1.52;;;;;;;19.36;30.30;99819.19;5094548;28;20032;-49
2022/02/07 11:06:44;;;;;;;29.08;3.08;;;;;;;18.71;31.44;99822.56;5094132;28;20409;-48
2022/02/07 11:09:23;;;;;;;11.27;1.52;;;;;;;18.31;31.55;99817.75;5094102;28;20024;-50
2022/02/07 11:14:46;;;;;;;10.40;2.08;;;;;;;18.31;32.39;99826.56;5093988;28;20592;-49
2022/02/07 11:17:52;;;;;;;9.38;2.20;;;;;;;18.55;31.98;99829.31;5091362;28;20064;-49
2022/02/07 11:20:47;;;;;;;9.93;1.73;;;;;;;18.88;32.25;99820.13;5093893;28;20035;-49
2022/02/07 11:28:18;;;;;;;12.45;1.25;;;;;;;19.34;29.33;99811.41;5093659;28;20032;-48
2022/02/07 11:30:50;;;;;;;10.05;1.70;;;;;;;19.45;28.95;99812.44;5092365;28;20405;-49
2022/02/07 11:33:41;;;;;;;8.27;1.90;;;;;;;19.50;29.34;99814.44;5092072;28;20071;-48
2022/02/07 11:36:21;;;;;;;8.73;1.70;;;;;;;19.59;29.50;99813.03;5093581;28;20050;-49
2022/02/07 11:38:58;;;;;;;7.00;2.53;;;;;;;19.57;29.49;99815.13;5092298;28;20410;-49
2022/02/07 11:41:24;;;;;;;9.82;2.47;;;;;;;19.59;30.06;99814.91;5093516;28;20046;-49
2022/02/07 11:43:50;;;;;;;9.50;2.05;;;;;;;19.49;30.41;99818.94;5092143;28;20031;-49
2022/02/07 11:46:17;;;;;;;10.18;1.92;;;;;;;19.83;30.55;99829.06;5093368;28;20028;-49
2022/02/07 11:48:57;;;;;;;6.25;1.58;;;;;;;19.86;30.52;99829.41;5093229;28;20024;-49
2022/02/07 11:51:28;;;;;;;5.93;1.38;;;;;;;19.90;29.75;99811.06;5093261;28;20024;-49
2022/02/07 11:53:59;;;;;;;9.10;1.98;;;;;;;19.76;29.88;99802.53;5093186;28;20099;-50
2022/02/07 11:56:44;;;;;;;9.20;1.23;;;;;;;19.38;30.23;99797.63;5091832;28;20043;-49
2022/02/07 11:59:39;;;;;;;3.63;1.60;;;;;;;19.21;31.63;99802.81;5093201;28;20044;-48
2022/02/07 12:02:19;;;;;;;3.63;1.10;;;;;;;19.27;31.34;99788.59;5091766;28;20028;-49
2022/02/07 12:04:45;;;;;;;6.93;1.27;;;;;;;19.15;31.38;99818.66;5093088;28;20069;-49
2022/02/07 12:07:10;;;;;;;4.57;1.50;;;;;;;19.13;31.39;99810.09;5091664;28;20028;-49
2022/02/07 12:09:37;;;;;;;30.27;18.50;;;;;;;19.16;31.64;99804.31;5092871;28;20020;-49
2022/02/07 12:12:04;;;;;;;11.02;2.95;;;;;;;19.09;31.37;99808.13;5092860;28;20524;-48
2022/02/07 12:14:33;;;;;;;9.50;1.65;;;;;;;18.79;31.94;99808.97;5092817;28;20070;-49
2022/02/07 12:16:59;;;;;;;4.10;1.52;;;;;;;17.73;32.98;99793.22;5091456;28;20027;-49
2022/02/07 12:19:40;;;;;;;9.48;1.83;;;;;;;17.49;33.68;99783.47;5092681;28;20027;-49
2022/02/07 12:22:15;;;;;;;8.63;1.85;;;;;;;17.71;32.75;99774.06;5092676;28;20024;-48
2022/02/07 12:24:48;;;;;;;;;;;;;;;18.14;32.37;99778.50;5093043;28;20027;-48
2022/02/07 12:27:15;;;;;;;11.93;1.88;;;;;;;18.03;31.81;99778.44;5092584;28;19911;-48
2022/02/07 12:29:59;;;;;;;10.63;4.88;;;;;;;17.83;32.86;99781.28;5092039;28;20016;-48
2022/02/07 12:32:25;;;;;;;2.85;1.30;;;;;;;18.05;30.43;99765.72;5092558;28;20024;-49
2022/02/07 12:34:52;;;;;;;8.10;1.38;;;;;;;18.08;30.26;99773.28;5090960;28;20516;-49
2022/02/07 12:37:19;;;;;;;8.68;1.02;;;;;;;18.21;30.06;99767.81;5091212;28;20043;-49
2022/02/07 12:39:47;;;;;;;6.85;1.13;;;;;;;18.27;29.21;99769.56;5092406;28;20028;-48
2022/02/07 12:42:13;;;;;;;9.00;1.52;;;;;;;18.13;29.10;99778.75;5092361;28;20016;-49
2022/02/07 12:44:39;;;;;;;21.42;3.35;;;;;;;17.81;29.68;99770.06;5090968;28;20032;-48
2022/02/07 12:47:07;;;;;;;10.70;1.88;;;;;;;17.66;30.33;99765.91;5092211;28;20039;-49
2022/02/07 12:49:36;;;;;;;8.75;1.10;;;;;;;17.56;27.92;99755.00;5092048;28;20032;-49
2022/02/07 12:52:02;;;;;;;9.20;1.05;;;;;;;17.30;28.42;99754.22;5090818;28;20024;-49
2022/02/07 12:54:28;;;;;;;9.10;1.60;;;;;;;17.09;28.34;99765.22;5090806;28;20047;-49
2022/02/07 12:57:00;;;;;;;7.85;1.30;;;;;;;17.00;28.88;99780.56;5092117;28;20478;-48
2022/02/07 12:59:26;;;;;;;6.70;1.30;;;;;;;17.20;28.93;99775.13;5092134;28;20058;-50
2022/02/07 13:01:54;;;;;;;5.05;1.08;;;;;;;17.30;28.40;99771.97;5092037;28;20026;-48
2022/02/07 13:04:21;;;;;;;9.55;1.10;;;;;;;17.32;27.95;99781.34;5090682;28;20532;-50
2022/02/07 13:06:49;;;;;;;10.63;1.73;;;;;;;17.45;27.90;99779.63;5091966;28;20024;-49
2022/02/07 13:09:39;;;;;;;5.53;1.00;;;;;;;17.35;28.49;99783.56;5090572;28;20028;-49
2022/02/07 13:15:08;;;;;;;7.90;1.30;;;;;;;17.20;29.56;99777.78;5092263;28;20107;-50
2022/02/07 13:17:37;;;;;;;9.38;1.42;;;;;;;17.08;30.66;99790.13;5091538;28;20039;-49
2022/02/07 13:20:07;;;;;;;12.80;1.80;;;;;;;17.12;31.48;99793.97;5091801;28;20107;-49
2022/02/07 13:22:33;;;;;;;6.57;1.70;;;;;;;17.33;30.61;99798.09;5091816;28;20028;-48
2022/02/07 13:24:58;;;;;;;11.00;1.63;;;;;;;17.31;30.03;99803.63;5090524;28;20521;-48
2022/02/07 13:27:24;;;;;;;14.88;3.15;;;;;;;17.08;30.36;99798.91;5091713;28;20390;-48
2022/02/07 13:29:54;;;;;;;14.77;2.88;;;;;;;16.80;31.11;99793.94;5090361;28;20085;-48
2022/02/07 13:32:26;;;;;;;8.75;1.88;;;;;;;16.29;31.68;99808.06;5091614;28;20020;-48
2022/02/07 13:35:08;;;;;;;8.25;1.80;;;;;;;16.17;32.84;99792.00;5091363;28;20048;-47
2022/02/07 13:37:37;;;;;;;20.33;2.10;;;;;;;16.21;32.21;99755.34;5091681;28;20028;-48
2022/02/07 13:40:21;;;;;;;6.65;1.67;;;;;;;15.05;32.84;99815.75;5091735;28;20107;-48
2022/02/07 13:42:49;;;;;;;12.13;1.73;;;;;;;14.25;33.89;99838.44;5095783;28;20035;-48
2022/02/07 13:45:26;;;;;;;12.18;1.65;;;;;;;14.26;33.81;99819.72;5095671;28;20031;-49
2022/02/07 13:47:57;;;;;;;7.70;1.30;;;;;;;14.54;33.01;99840.78;5094435;28;20066;-49
2022/02/07 13:50:29;;;;;;;9.63;1.73;;;;;;;14.78;32.03;99820.16;5095520;28;20073;-49
2022/02/07 13:52:57;;;;;;;9.00;2.42;;;;;;;14.52;32.18;99823.50;5095932;28;20035;-49
2022/02/07 13:55:33;;;;;;;7.90;1.55;;;;;;;14.54;32.00;99822.28;5095501;28;20428;-48
2022/02/07 13:58:09;;;;;;;5.38;1.65;;;;;;;14.62;31.53;99817.88;5094293;28;20089;-48
2022/02/07 14:00:49;;;;;;;11.90;2.17;;;;;;;14.61;30.00;99814.44;5095808;28;20095;-49
2022/02/07 14:03:20;;;;;;;7.65;2.13;;;;;;;14.46;29.79;99824.28;5095417;28;20028;-48
2022/02/07 14:05:48;;;;;;;9.65;2.90;;;;;;;14.27;30.87;99816.09;5094087;28;20584;-48
2022/02/07 14:08:16;;;;;;;14.55;6.53;;;;;;;14.13;31.70;99807.28;5095202;28;20020;-49
2022/02/07 14:10:44;;;;;;;5.95;1.90;;;;;;;14.08;31.98;99804.41;5095522;28;20377;-48
2022/02/07 14:13:16;;;;;;;4.45;1.80;;;;;;;13.84;32.45;99796.97;5095174;28;20070;-49